sensor_id;sensor_type;location;lat;lon;timestamp;temperature;humidity
2050;DHT22;8478;49.208;8.806;2023-03-05T11:39:15;8.50;99.90
2050;DHT22;8478;49.208;8.806;2023-03-05T11:42:28;8.70;99.90
2050;DHT22;8478;49.208;8.806;2023-03-05T11:47:17;9.20;99.90
2050;DHT22;8478;49.208;8.806;2023-03-05T11:49:47;9.60;99.90
2050;DHT22;8478;49.208;8.806;2023-03-05T11:53:03;10.00;99.90
2050;DHT22;8478;49.208;8.806;2023-03-05T11:55:06;10.10;99.90
2050;DHT22;8478;49.208;8.806;2023-03-05T11:58:08;10.20;99.90
2050;DHT22;8478;49.208;8.806;2023-03-05T12:00:38;10.40;99.90
2050;DHT22;8478;49.208;8.806;2023-03-05T12:03:12;10.50;99.90
2050;DHT22;8478;49.208;8.806;2023-03-05T12:05:42;10.60;99.90
2050;DHT22;8478;49.208;8.806;2023-03-05T12:08:13;10.70;99.90
2050;DHT22;8478;49.208;8.806;2023-03-05T12:10:39;10.80;99.90
2050;DHT22;8478;49.208;8.806;2023-03-05T12:13:25;10.90;99.90
2050;DHT22;8478;49.208;8.806;2023-03-05T12:16:05;10.70;99.90
2050;DHT22;8478;49.208;8.806;2023-03-05T12:21:33;10.30;99.90
2050;DHT22;8478;49.208;8.806;2023-03-05T12:24:47;10.10;99.90
2050;DHT22;8478;49.208;8.806;2023-03-05T12:47:41;11.10;99.90
2050;DHT22;8478;49.208;8.806;2023-03-05T12:52:56;11.20;99.90
2050;DHT22;8478;49.208;8.806;2023-03-05T12:57:59;11.20;99.90
2050;DHT22;8478;49.208;8.806;2023-03-05T13:00:52;11.30;99.90
2050;DHT22;8478;49.208;8.806;2023-03-05T13:03:31;11.30;99.90
2050;DHT22;8478;49.208;8.806;2023-03-05T13:05:58;11.20;99.90
2050;DHT22;8478;49.208;8.806;2023-03-05T13:08:26;10.80;99.90
2050;DHT22;8478;49.208;8.806;2023-03-05T13:13:34;10.40;99.90
2050;DHT22;8478;49.208;8.806;2023-03-05T13:15:59;10.60;99.90
2050;DHT22;8478;49.208;8.806;2023-03-05T13:18:27;10.80;99.90
2050;DHT22;8478;49.208;8.806;2023-03-05T13:21:12;10.60;99.90
2050;DHT22;8478;49.208;8.806;2023-03-05T13:23:51;10.70;99.90
2050;DHT22;8478;49.208;8.806;2023-03-05T13:26:44;11.00;99.90
2050;DHT22;8478;49.208;8.806;2023-03-05T13:29:14;11.20;99.90
2050;DHT22;8478;49.208;8.806;2023-03-05T13:31:53;10.90;99.90
2050;DHT22;8478;49.208;8.806;2023-03-05T13:34:33;10.70;99.90
2050;DHT22;8478;49.208;8.806;2023-03-05T13:37:20;10.30;99.90
2050;DHT22;8478;49.208;8.806;2023-03-05T13:39:55;10.10;99.90
2050;DHT22;8478;49.208;8.806;2023-03-05T13:42:29;9.90;99.90
2050;DHT22;8478;49.208;8.806;2023-03-05T13:45:04;9.80;99.90
2050;DHT22;8478;49.208;8.806;2023-03-05T13:47:32;9.70;99.90
2050;DHT22;8478;49.208;8.806;2023-03-05T13:50:05;9.60;99.90
2050;DHT22;8478;49.208;8.806;2023-03-05T13:52:35;9.60;99.90
2050;DHT22;8478;49.208;8.806;2023-03-05T13:55:09;9.60;99.90
2050;DHT22;8478;49.208;8.806;2023-03-05T13:57:50;9.60;99.90
2050;DHT22;8478;49.208;8.806;2023-03-05T14:00:36;9.60;99.90
2050;DHT22;8478;49.208;8.806;2023-03-05T14:03:19;9.50;99.90
2050;DHT22;8478;49.208;8.806;2023-03-05T14:05:45;9.50;99.90
2050;DHT22;8478;49.208;8.806;2023-03-05T14:08:23;9.40;99.90
2050;DHT22;8478;49.208;8.806;2023-03-05T14:10:50;9.40;99.90
2050;DHT22;8478;49.208;8.806;2023-03-05T14:13:19;9.40;99.90
2050;DHT22;8478;49.208;8.806;2023-03-05T14:16:06;9.40;99.90
2050;DHT22;8478;49.208;8.806;2023-03-05T14:18:33;9.40;99.90
2050;DHT22;8478;49.208;8.806;2023-03-05T14:21:01;9.30;99.90
2050;DHT22;8478;49.208;8.806;2023-03-05T14:23:44;9.30;99.90
2050;DHT22;8478;49.208;8.806;2023-03-05T14:26:36;9.30;99.90
2050;DHT22;8478;49.208;8.806;2023-03-05T14:29:14;9.30;99.90
2050;DHT22;8478;49.208;8.806;2023-03-05T14:34:31;9.20;99.90
2050;DHT22;8478;49.208;8.806;2023-03-05T14:37:02;9.30;99.90
2050;DHT22;8478;49.208;8.806;2023-03-05T14:39:29;9.20;99.90
2050;DHT22;8478;49.208;8.806;2023-03-05T14:42:32;9.20;99.90
2050;DHT22;8478;49.208;8.806;2023-03-05T14:45:00;9.20;99.90
2050;DHT22;8478;49.208;8.806;2023-03-05T14:47:26;9.20;99.90
2050;DHT22;8478;49.208;8.806;2023-03-05T14:49:52;9.20;99.90
2050;DHT22;8478;49.208;8.806;2023-03-05T14:52:19;9.20;99.90
2050;DHT22;8478;49.208;8.806;2023-03-05T14:54:47;9.20;99.90
2050;DHT22;8478;49.208;8.806;2023-03-05T14:57:22;9.20;99.90
2050;DHT22;8478;49.208;8.806;2023-03-05T14:59:48;9.20;99.90
2050;DHT22;8478;49.208;8.806;2023-03-05T15:02:19;9.20;99.90
2050;DHT22;8478;49.208;8.806;2023-03-05T15:04:46;9.10;99.90
2050;DHT22;8478;49.208;8.806;2023-03-05T15:07:38;9.20;99.90
2050;DHT22;8478;49.208;8.806;2023-03-05T15:10:05;9.20;99.90
2050;DHT22;8478;49.208;8.806;2023-03-05T15:12:32;9.10;99.90
2050;DHT22;8478;49.208;8.806;2023-03-05T15:14:58;9.10;99.90
2050;DHT22;8478;49.208;8.806;2023-03-05T15:17:35;9.10;99.90
2050;DHT22;8478;49.208;8.806;2023-03-05T15:20:04;9.10;99.90
2050;DHT22;8478;49.208;8.806;2023-03-05T15:22:35;9.10;99.90
2050;DHT22;8478;49.208;8.806;2023-03-05T15:25:01;9.10;99.90
2050;DHT22;8478;49.208;8.806;2023-03-05T15:27:27;9.10;99.90
2050;DHT22;8478;49.208;8.806;2023-03-05T15:29:53;9.10;99.90
2050;DHT22;8478;49.208;8.806;2023-03-05T15:32:18;9.10;99.90
2050;DHT22;8478;49.208;8.806;2023-03-05T15:34:44;9.10;99.90
2050;DHT22;8478;49.208;8.806;2023-03-05T15:37:10;9.00;99.90
2050;DHT22;8478;49.208;8.806;2023-03-05T15:39:35;9.10;99.90
2050;DHT22;8478;49.208;8.806;2023-03-05T15:42:01;9.10;99.90
2050;DHT22;8478;49.208;8.806;2023-03-05T15:44:27;9.10;99.90
2050;DHT22;8478;49.208;8.806;2023-03-05T15:46:53;9.00;99.90
2050;DHT22;8478;49.208;8.806;2023-03-05T15:49:21;9.00;99.90
2050;DHT22;8478;49.208;8.806;2023-03-05T15:51:49;9.00;99.90
2050;DHT22;8478;49.208;8.806;2023-03-05T15:54:14;8.90;99.90
2050;DHT22;8478;49.208;8.806;2023-03-05T15:56:40;8.70;99.90
2050;DHT22;8478;49.208;8.806;2023-03-05T15:59:07;8.90;99.90
2050;DHT22;8478;49.208;8.806;2023-03-05T16:01:36;9.20;99.90
2050;DHT22;8478;49.208;8.806;2023-03-05T16:04:01;9.40;99.90
2050;DHT22;8478;49.208;8.806;2023-03-05T16:06:28;9.70;99.90
2050;DHT22;8478;49.208;8.806;2023-03-05T16:09:04;9.80;99.90
2050;DHT22;8478;49.208;8.806;2023-03-05T16:11:32;9.90;99.90
2050;DHT22;8478;49.208;8.806;2023-03-05T16:14:02;10.00;99.90
2050;DHT22;8478;49.208;8.806;2023-03-05T16:16:30;10.00;99.90
2050;DHT22;8478;49.208;8.806;2023-03-05T16:18:57;9.80;99.90
2050;DHT22;8478;49.208;8.806;2023-03-05T16:21:22;9.60;99.90
2050;DHT22;8478;49.208;8.806;2023-03-05T16:23:48;9.50;99.90
2050;DHT22;8478;49.208;8.806;2023-03-05T16:26:14;9.40;99.90
2050;DHT22;8478;49.208;8.806;2023-03-05T16:28:40;9.30;99.90
2050;DHT22;8478;49.208;8.806;2023-03-05T16:31:06;9.30;99.90
2050;DHT22;8478;49.208;8.806;2023-03-05T16:33:31;9.30;99.90
2050;DHT22;8478;49.208;8.806;2023-03-05T16:38:38;9.20;99.90
2050;DHT22;8478;49.208;8.806;2023-03-05T16:41:03;9.10;99.90
2050;DHT22;8478;49.208;8.806;2023-03-05T16:43:29;9.10;99.90
2050;DHT22;8478;49.208;8.806;2023-03-05T16:45:55;9.10;99.90
2050;DHT22;8478;49.208;8.806;2023-03-05T16:48:20;9.10;99.90
2050;DHT22;8478;49.208;8.806;2023-03-05T16:50:46;9.10;99.90
2050;DHT22;8478;49.208;8.806;2023-03-05T16:53:12;9.10;99.90
2050;DHT22;8478;49.208;8.806;2023-03-05T16:55:38;9.00;99.90
2050;DHT22;8478;49.208;8.806;2023-03-05T16:58:04;9.10;99.90
2050;DHT22;8478;49.208;8.806;2023-03-05T17:00:30;9.10;99.90
2050;DHT22;8478;49.208;8.806;2023-03-05T17:02:55;9.00;99.90
2050;DHT22;8478;49.208;8.806;2023-03-05T17:05:21;9.00;99.90
2050;DHT22;8478;49.208;8.806;2023-03-05T17:07:47;9.00;99.90
2050;DHT22;8478;49.208;8.806;2023-03-05T17:10:12;9.00;99.90
2050;DHT22;8478;49.208;8.806;2023-03-05T17:12:38;9.00;99.90
2050;DHT22;8478;49.208;8.806;2023-03-05T17:15:05;9.00;99.90
2050;DHT22;8478;49.208;8.806;2023-03-05T17:17:31;9.00;99.90
2050;DHT22;8478;49.208;8.806;2023-03-05T17:19:57;9.00;99.90
2050;DHT22;8478;49.208;8.806;2023-03-05T17:22:23;9.00;99.90
2050;DHT22;8478;49.208;8.806;2023-03-05T17:24:49;9.00;99.90
2050;DHT22;8478;49.208;8.806;2023-03-05T17:27:15;9.00;99.90
2050;DHT22;8478;49.208;8.806;2023-03-05T17:29:44;9.00;99.90
2050;DHT22;8478;49.208;8.806;2023-03-05T17:32:10;8.90;99.90
2050;DHT22;8478;49.208;8.806;2023-03-05T17:34:36;9.00;99.90
2050;DHT22;8478;49.208;8.806;2023-03-05T17:37:02;9.00;99.90
2050;DHT22;8478;49.208;8.806;2023-03-05T17:39:29;9.00;99.90
2050;DHT22;8478;49.208;8.806;2023-03-05T17:41:54;8.90;99.90
2050;DHT22;8478;49.208;8.806;2023-03-05T17:44:20;9.00;99.90
2050;DHT22;8478;49.208;8.806;2023-03-05T17:46:46;9.00;99.90
2050;DHT22;8478;49.208;8.806;2023-03-05T17:49:12;9.00;99.90
2050;DHT22;8478;49.208;8.806;2023-03-05T17:51:37;9.00;99.90
2050;DHT22;8478;49.208;8.806;2023-03-05T17:54:04;8.90;99.90
2050;DHT22;8478;49.208;8.806;2023-03-05T17:56:30;9.00;99.90
2050;DHT22;8478;49.208;8.806;2023-03-05T17:58:58;8.90;99.90
2050;DHT22;8478;49.208;8.806;2023-03-05T18:01:30;8.90;99.90
2050;DHT22;8478;49.208;8.806;2023-03-05T18:03:56;8.90;99.90
2050;DHT22;8478;49.208;8.806;2023-03-05T18:06:22;8.90;99.90
2050;DHT22;8478;49.208;8.806;2023-03-05T18:08:48;8.90;99.90
2050;DHT22;8478;49.208;8.806;2023-03-05T18:11:14;8.90;99.90
2050;DHT22;8478;49.208;8.806;2023-03-05T18:13:41;8.90;99.90
2050;DHT22;8478;49.208;8.806;2023-03-05T18:16:08;8.90;99.90
2050;DHT22;8478;49.208;8.806;2023-03-05T18:18:34;8.90;99.90
2050;DHT22;8478;49.208;8.806;2023-03-05T18:21:00;8.90;99.90
2050;DHT22;8478;49.208;8.806;2023-03-05T18:23:25;8.90;99.90
2050;DHT22;8478;49.208;8.806;2023-03-05T18:25:51;8.80;99.90
2050;DHT22;8478;49.208;8.806;2023-03-05T18:28:17;8.90;99.90
2050;DHT22;8478;49.208;8.806;2023-03-05T18:30:44;8.90;99.90
2050;DHT22;8478;49.208;8.806;2023-03-05T18:33:18;8.90;99.90
2050;DHT22;8478;49.208;8.806;2023-03-05T18:35:45;8.90;99.90
2050;DHT22;8478;49.208;8.806;2023-03-05T18:38:12;8.90;99.90
2050;DHT22;8478;49.208;8.806;2023-03-05T18:40:38;8.80;99.90
2050;DHT22;8478;49.208;8.806;2023-03-05T18:43:04;8.90;99.90
2050;DHT22;8478;49.208;8.806;2023-03-05T18:45:30;8.80;99.90
2050;DHT22;8478;49.208;8.806;2023-03-05T18:47:56;8.90;99.90
2050;DHT22;8478;49.208;8.806;2023-03-05T18:50:24;8.80;99.90
2050;DHT22;8478;49.208;8.806;2023-03-05T18:52:50;8.80;99.90
2050;DHT22;8478;49.208;8.806;2023-03-05T18:55:18;8.80;99.90
2050;DHT22;8478;49.208;8.806;2023-03-05T18:57:44;8.80;99.90
2050;DHT22;8478;49.208;8.806;2023-03-05T19:00:15;8.80;99.90
2050;DHT22;8478;49.208;8.806;2023-03-05T19:02:41;8.80;99.90
2050;DHT22;8478;49.208;8.806;2023-03-05T19:05:07;8.80;99.90
2050;DHT22;8478;49.208;8.806;2023-03-05T19:07:33;8.80;99.90
2050;DHT22;8478;49.208;8.806;2023-03-05T19:09:59;8.80;99.90
2050;DHT22;8478;49.208;8.806;2023-03-05T19:15:30;8.80;99.90
2050;DHT22;8478;49.208;8.806;2023-03-05T19:17:56;8.80;99.90
2050;DHT22;8478;49.208;8.806;2023-03-05T19:20:22;8.80;99.90
2050;DHT22;8478;49.208;8.806;2023-03-05T19:22:48;8.80;99.90
2050;DHT22;8478;49.208;8.806;2023-03-05T19:25:16;8.80;99.90
2050;DHT22;8478;49.208;8.806;2023-03-05T19:27:42;8.80;99.90
2050;DHT22;8478;49.208;8.806;2023-03-05T19:30:08;8.80;99.90
2050;DHT22;8478;49.208;8.806;2023-03-05T19:32:35;8.80;99.90
2050;DHT22;8478;49.208;8.806;2023-03-05T19:35:00;8.80;99.90
2050;DHT22;8478;49.208;8.806;2023-03-05T19:37:26;8.80;99.90
2050;DHT22;8478;49.208;8.806;2023-03-05T19:39:52;8.80;99.90
2050;DHT22;8478;49.208;8.806;2023-03-05T19:42:18;8.80;99.90
2050;DHT22;8478;49.208;8.806;2023-03-05T19:44:44;8.80;99.90
2050;DHT22;8478;49.208;8.806;2023-03-05T19:47:10;8.80;99.90
2050;DHT22;8478;49.208;8.806;2023-03-05T19:49:35;8.80;99.90
2050;DHT22;8478;49.208;8.806;2023-03-05T19:52:01;8.80;99.90
2050;DHT22;8478;49.208;8.806;2023-03-05T19:54:28;8.80;99.90
2050;DHT22;8478;49.208;8.806;2023-03-05T19:56:54;8.80;99.90
2050;DHT22;8478;49.208;8.806;2023-03-05T19:59:22;8.70;99.90
2050;DHT22;8478;49.208;8.806;2023-03-05T20:01:48;8.80;99.90
2050;DHT22;8478;49.208;8.806;2023-03-05T20:04:17;8.80;99.90
2050;DHT22;8478;49.208;8.806;2023-03-05T20:06:43;8.80;99.90
2050;DHT22;8478;49.208;8.806;2023-03-05T20:09:09;8.80;99.90
2050;DHT22;8478;49.208;8.806;2023-03-05T20:11:35;8.70;99.90
2050;DHT22;8478;49.208;8.806;2023-03-05T20:14:00;8.80;99.90
2050;DHT22;8478;49.208;8.806;2023-03-05T20:16:28;8.70;99.90
2050;DHT22;8478;49.208;8.806;2023-03-05T20:18:56;8.70;99.90
2050;DHT22;8478;49.208;8.806;2023-03-05T20:21:24;8.70;99.90
2050;DHT22;8478;49.208;8.806;2023-03-05T20:23:52;8.70;99.90
2050;DHT22;8478;49.208;8.806;2023-03-05T20:26:19;8.70;99.90
2050;DHT22;8478;49.208;8.806;2023-03-05T20:28:45;8.70;99.90
2050;DHT22;8478;49.208;8.806;2023-03-05T20:31:11;8.70;99.90
2050;DHT22;8478;49.208;8.806;2023-03-05T20:33:37;8.70;99.90
2050;DHT22;8478;49.208;8.806;2023-03-05T20:36:03;8.70;99.90
2050;DHT22;8478;49.208;8.806;2023-03-05T20:38:29;8.70;99.90
2050;DHT22;8478;49.208;8.806;2023-03-05T20:41:10;8.70;99.90
2050;DHT22;8478;49.208;8.806;2023-03-05T20:43:42;8.50;99.90
2050;DHT22;8478;49.208;8.806;2023-03-05T20:46:16;8.70;99.90
2050;DHT22;8478;49.208;8.806;2023-03-05T20:48:42;8.70;99.90
2050;DHT22;8478;49.208;8.806;2023-03-05T20:51:14;8.70;99.90
2050;DHT22;8478;49.208;8.806;2023-03-05T20:53:41;8.70;99.90
2050;DHT22;8478;49.208;8.806;2023-03-05T20:56:07;8.70;99.90
2050;DHT22;8478;49.208;8.806;2023-03-05T20:58:33;8.70;99.90
2050;DHT22;8478;49.208;8.806;2023-03-05T21:00:58;8.70;99.90
2050;DHT22;8478;49.208;8.806;2023-03-05T21:03:24;8.70;99.90
2050;DHT22;8478;49.208;8.806;2023-03-05T21:05:50;8.70;99.90
2050;DHT22;8478;49.208;8.806;2023-03-05T21:08:15;8.70;99.90
2050;DHT22;8478;49.208;8.806;2023-03-05T21:10:41;8.70;99.90
2050;DHT22;8478;49.208;8.806;2023-03-05T21:13:07;8.70;99.90
2050;DHT22;8478;49.208;8.806;2023-03-05T21:15:32;8.70;99.90
2050;DHT22;8478;49.208;8.806;2023-03-05T21:17:58;8.70;99.90
2050;DHT22;8478;49.208;8.806;2023-03-05T21:20:27;8.70;99.90
2050;DHT22;8478;49.208;8.806;2023-03-05T21:22:54;8.70;99.90
2050;DHT22;8478;49.208;8.806;2023-03-05T21:25:22;8.70;99.90
2050;DHT22;8478;49.208;8.806;2023-03-05T21:27:55;8.70;99.90
2050;DHT22;8478;49.208;8.806;2023-03-05T21:30:25;8.70;99.90
2050;DHT22;8478;49.208;8.806;2023-03-05T21:32:53;8.70;99.90
2050;DHT22;8478;49.208;8.806;2023-03-05T21:35:21;8.70;99.90
2050;DHT22;8478;49.208;8.806;2023-03-05T21:37:47;8.70;99.90
2050;DHT22;8478;49.208;8.806;2023-03-05T21:40:16;8.70;99.90
2050;DHT22;8478;49.208;8.806;2023-03-05T21:42:43;8.70;99.90
2050;DHT22;8478;49.208;8.806;2023-03-05T21:45:11;8.70;99.90
2050;DHT22;8478;49.208;8.806;2023-03-05T21:47:37;8.70;99.90
2050;DHT22;8478;49.208;8.806;2023-03-05T21:50:05;8.70;99.90
2050;DHT22;8478;49.208;8.806;2023-03-05T21:52:31;8.70;99.90
2050;DHT22;8478;49.208;8.806;2023-03-05T21:54:57;8.70;99.90
2050;DHT22;8478;49.208;8.806;2023-03-05T21:57:23;8.70;99.90
2050;DHT22;8478;49.208;8.806;2023-03-05T21:59:50;8.70;99.90
2050;DHT22;8478;49.208;8.806;2023-03-05T22:02:18;8.70;99.90
2050;DHT22;8478;49.208;8.806;2023-03-05T22:04:44;8.70;99.90
2050;DHT22;8478;49.208;8.806;2023-03-05T22:07:10;8.70;99.90
2050;DHT22;8478;49.208;8.806;2023-03-05T22:09:36;8.70;99.90
2050;DHT22;8478;49.208;8.806;2023-03-05T22:12:21;8.60;99.90
2050;DHT22;8478;49.208;8.806;2023-03-05T22:15:06;8.70;99.90
2050;DHT22;8478;49.208;8.806;2023-03-05T22:17:32;8.70;99.90
2050;DHT22;8478;49.208;8.806;2023-03-05T22:19:57;8.70;99.90
2050;DHT22;8478;49.208;8.806;2023-03-05T22:22:23;8.70;99.90
2050;DHT22;8478;49.208;8.806;2023-03-05T22:24:49;8.70;99.90
2050;DHT22;8478;49.208;8.806;2023-03-05T22:27:14;8.70;99.90
2050;DHT22;8478;49.208;8.806;2023-03-05T22:29:40;8.70;99.90
2050;DHT22;8478;49.208;8.806;2023-03-05T22:32:06;8.60;99.90
2050;DHT22;8478;49.208;8.806;2023-03-05T22:34:31;8.70;99.90
2050;DHT22;8478;49.208;8.806;2023-03-05T22:36:57;8.60;99.90
2050;DHT22;8478;49.208;8.806;2023-03-05T22:39:22;8.60;99.90
2050;DHT22;8478;49.208;8.806;2023-03-05T22:41:48;8.60;99.90
2050;DHT22;8478;49.208;8.806;2023-03-05T22:44:15;8.60;99.90
2050;DHT22;8478;49.208;8.806;2023-03-05T22:46:41;8.60;99.90
2050;DHT22;8478;49.208;8.806;2023-03-05T22:49:08;8.60;99.90
2050;DHT22;8478;49.208;8.806;2023-03-05T22:51:34;8.70;99.90
2050;DHT22;8478;49.208;8.806;2023-03-05T22:54:00;8.60;99.90
2050;DHT22;8478;49.208;8.806;2023-03-05T22:56:26;8.60;99.90
2050;DHT22;8478;49.208;8.806;2023-03-05T22:58:52;8.60;99.90
2050;DHT22;8478;49.208;8.806;2023-03-05T23:01:23;8.60;99.90
2050;DHT22;8478;49.208;8.806;2023-03-05T23:04:07;8.70;99.90
2050;DHT22;8478;49.208;8.806;2023-03-05T23:06:56;8.60;99.90
2050;DHT22;8478;49.208;8.806;2023-03-05T23:09:22;8.60;99.90
2050;DHT22;8478;49.208;8.806;2023-03-05T23:11:48;8.60;99.90
2050;DHT22;8478;49.208;8.806;2023-03-05T23:14:13;8.60;99.90
2050;DHT22;8478;49.208;8.806;2023-03-05T23:16:39;8.60;99.90
2050;DHT22;8478;49.208;8.806;2023-03-05T23:19:05;8.60;99.90
2050;DHT22;8478;49.208;8.806;2023-03-05T23:21:30;8.60;99.90
2050;DHT22;8478;49.208;8.806;2023-03-05T23:23:56;8.60;99.90
2050;DHT22;8478;49.208;8.806;2023-03-05T23:26:22;8.60;99.90
2050;DHT22;8478;49.208;8.806;2023-03-05T23:28:48;8.60;99.90
2050;DHT22;8478;49.208;8.806;2023-03-05T23:31:17;8.60;99.90
2050;DHT22;8478;49.208;8.806;2023-03-05T23:33:42;8.60;99.90
2050;DHT22;8478;49.208;8.806;2023-03-05T23:36:08;8.60;99.90
2050;DHT22;8478;49.208;8.806;2023-03-05T23:38:34;8.60;99.90
2050;DHT22;8478;49.208;8.806;2023-03-05T23:41:01;8.60;99.90
2050;DHT22;8478;49.208;8.806;2023-03-05T23:43:28;8.60;99.90
2050;DHT22;8478;49.208;8.806;2023-03-05T23:45:55;8.60;99.90
2050;DHT22;8478;49.208;8.806;2023-03-05T23:48:25;8.60;99.90
2050;DHT22;8478;49.208;8.806;2023-03-05T23:50:51;8.60;99.90
2050;DHT22;8478;49.208;8.806;2023-03-05T23:53:22;8.60;99.90
2050;DHT22;8478;49.208;8.806;2023-03-05T23:55:49;8.60;99.90
2050;DHT22;8478;49.208;8.806;2023-03-05T23:58:16;8.60;99.90
